Decoded Metar for KD95 ( in ) (IATA:) | Meteo·Mobile Aviation Weather
aviador You're here:

KD95 Decoded Metar

in
Report Time2019-01-18 11:36:00
UTC Time2019-01-18 11:43:14
Flight Rules ifr IFR
Wind280° at 04 kt
W.Rank280° ranks 1
Current wind is below 280° avg. (7.6)
Visibility6437 m
Phenomena:Mist
Clouds:Overcast 007 Hf
Expected CloudBase > 400 ft AGL from Temp-Dew spread
Ceiling700 ft
Temp-2°C
Dew Point-3°C (93% RH)
AAT-5.8°C
QNH1017 hPa
Raw Report
KD95 181136Z AUTO 28004KT 4SM BR OVC007 M02/M03 A3002 RMK AO2
T10201031=

Extra information for KD95:More info

Social comments